Time;durP1;ratioP1;P1;durP2;ratioP2;P2;SDS_P1;SDS_P2;PMS_P1;PMS_P2;Temp;Humidity;BMP_temperature;BMP_pressure;BME280_temperature;BME280_humidity;BME280_pressure;Samples;Min_cycle;Max_cycle;Signal;HPM_P1;HPM_P2
2021/07/24 00:02:10;;;;;;;13.07;9.93;;;;;;;27.03;63.83;100306.66;5035518;28;20052;-75
2021/07/24 00:05:14;;;;;;;15.02;9.88;;;;;;;27.08;62.83;100304.00;5036220;28;20064;-74
2021/07/24 00:08:18;;;;;;;14.68;10.35;;;;;;;27.05;63.32;100293.47;5036170;28;20044;-75
2021/07/24 00:11:22;;;;;;;13.77;10.43;;;;;;;27.04;62.80;100289.03;5036141;28;20041;-74
2021/07/24 00:14:27;;;;;;;12.80;9.70;;;;;;;27.07;62.83;100285.78;5036052;28;20049;-74
2021/07/24 00:17:31;;;;;;;14.38;9.60;;;;;;;27.06;62.70;100276.69;5035348;28;20500;-75
2021/07/24 00:20:35;;;;;;;12.38;10.35;;;;;;;27.06;62.93;100273.09;5035203;28;20064;-74
2021/07/24 00:23:39;;;;;;;13.85;9.75;;;;;;;27.06;62.90;100273.09;5035633;28;20034;-74
2021/07/24 00:26:43;;;;;;;13.38;10.20;;;;;;;27.05;63.30;100271.41;5035858;28;20103;-74
2021/07/24 00:29:50;;;;;;;11.45;10.10;;;;;;;27.03;62.80;100266.13;5035349;28;20396;-74
2021/07/24 00:32:55;;;;;;;11.15;9.20;;;;;;;27.04;63.18;100269.75;5023254;28;20046;-74
2021/07/24 00:36:00;;;;;;;15.43;9.88;;;;;;;27.01;62.77;100259.22;5035210;28;20048;-75
2021/07/24 00:39:06;;;;;;;11.55;9.65;;;;;;;26.98;63.63;100256.94;5034563;28;20056;-74
2021/07/24 00:42:21;;;;;;;10.63;9.55;;;;;;;26.93;63.68;100248.56;5035328;28;20440;-76
2021/07/24 00:45:29;;;;;;;10.80;9.43;;;;;;;26.92;63.17;100244.13;5034521;28;20049;-75
2021/07/24 00:48:36;;;;;;;12.75;9.80;;;;;;;26.89;62.92;100239.94;5034597;28;20049;-74
2021/07/24 00:52:01;;;;;;;13.00;10.05;;;;;;;26.76;63.09;100233.88;5034360;28;20045;-74
2021/07/24 00:55:06;;;;;;;13.10;9.50;;;;;;;26.65;63.19;100234.69;5035092;28;20045;-74
2021/07/24 00:58:33;;;;;;;11.95;10.13;;;;;;;26.61;63.26;100242.63;5035073;28;20060;-74
2021/07/24 01:01:41;;;;;;;12.05;9.70;;;;;;;26.56;63.86;100236.16;5035249;28;20049;-73
2021/07/24 01:04:46;;;;;;;12.90;10.27;;;;;;;26.52;63.28;100233.03;5033923;28;20064;-74
2021/07/24 01:07:51;;;;;;;12.40;9.60;;;;;;;26.32;63.65;100227.06;5034069;28;20045;-74
2021/07/24 01:10:56;;;;;;;13.00;10.30;;;;;;;26.22;64.64;100235.94;5034820;28;20048;-75
2021/07/24 01:14:00;;;;;;;17.17;10.52;;;;;;;26.09;64.53;100230.66;5035013;28;20045;-74
2021/07/24 01:17:04;;;;;;;15.07;10.60;;;;;;;26.02;64.51;100229.09;5034824;28;20383;-75
2021/07/24 01:20:17;;;;;;;12.27;10.10;;;;;;;25.99;64.86;100222.16;5022277;28;20484;-74
2021/07/24 01:23:22;;;;;;;13.88;10.55;;;;;;;25.99;65.32;100213.91;5033508;28;20045;-74
2021/07/24 01:26:30;;;;;;;14.95;10.35;;;;;;;25.89;65.41;100210.03;5033719;28;20041;-74
2021/07/24 01:29:36;;;;;;;14.15;10.20;;;;;;;25.72;66.20;100220.91;5033661;28;20046;-74
2021/07/24 01:32:41;;;;;;;12.48;10.10;;;;;;;25.78;66.08;100228.19;5033303;28;20041;-74
2021/07/24 01:35:50;;;;;;;13.57;10.80;;;;;;;25.63;66.52;100223.16;5033540;28;20041;-74
2021/07/24 01:38:54;;;;;;;14.57;10.85;;;;;;;25.58;66.13;100220.25;5034295;28;20049;-74
2021/07/24 01:41:59;;;;;;;15.27;11.10;;;;;;;25.51;66.29;100219.53;5033463;28;20045;-73
2021/07/24 01:45:07;;;;;;;15.35;12.25;;;;;;;25.43;66.72;100219.00;5033496;28;20045;-75
2021/07/24 01:48:33;;;;;;;17.63;13.25;;;;;;;25.32;67.23;100222.56;5032728;28;20090;-74
2021/07/24 01:55:12;;;;;;;13.93;12.00;;;;;;;25.15;67.97;100228.72;5033062;28;20412;-75
2021/07/24 01:58:31;;;;;;;15.55;12.30;;;;;;;25.20;67.67;100217.88;5032957;28;20042;-74
2021/07/24 02:01:56;;;;;;;14.77;12.63;;;;;;;25.27;67.84;100227.91;5033453;28;20033;-74
2021/07/24 02:05:10;;;;;;;19.00;12.30;;;;;;;25.18;68.21;100233.72;5033135;28;20361;-76
2021/07/24 02:08:19;;;;;;;15.93;12.85;;;;;;;25.19;68.29;100232.66;5033120;28;20384;-75
2021/07/24 02:11:24;;;;;;;16.20;11.70;;;;;;;25.32;67.94;100242.63;5034113;28;20053;-74
2021/07/24 02:14:34;;;;;;;13.75;11.40;;;;;;;25.44;67.36;100237.16;5032646;28;20045;-75
2021/07/24 02:17:49;;;;;;;14.60;10.60;;;;;;;25.58;66.56;100233.16;5036380;28;20053;-74
2021/07/24 02:20:54;;;;;;;12.32;11.02;;;;;;;25.63;65.96;100234.16;5037402;28;20041;-74
2021/07/24 02:23:59;;;;;;;14.00;10.48;;;;;;;25.66;66.24;100233.69;5036873;28;20057;-76
2021/07/24 02:27:08;;;;;;;13.68;11.43;;;;;;;25.67;66.49;100235.38;5037872;28;20049;-74
2021/07/24 02:30:19;;;;;;;15.65;10.63;;;;;;;25.67;66.69;100237.28;5036703;28;20045;-76
2021/07/24 02:33:24;;;;;;;12.25;10.80;;;;;;;25.70;66.55;100228.56;5036877;28;20400;-76
2021/07/24 02:36:28;;;;;;;14.35;10.55;;;;;;;25.66;67.61;100216.34;5037124;28;20045;-75
2021/07/24 02:39:33;;;;;;;15.07;11.15;;;;;;;25.64;67.77;100213.84;5037363;28;20392;-74
2021/07/24 02:42:38;;;;;;;14.43;10.80;;;;;;;25.59;67.94;100227.47;5036397;28;20468;-74
2021/07/24 02:45:43;;;;;;;17.23;12.35;;;;;;;25.64;67.05;100230.34;5036923;28;20042;-75
2021/07/24 02:48:49;;;;;;;12.68;10.15;;;;;;;25.69;67.40;100235.13;5036806;28;20053;-74
2021/07/24 02:52:04;;;;;;;13.18;11.77;;;;;;;25.72;67.05;100231.91;5037133;28;20049;-75
2021/07/24 02:55:09;;;;;;;17.95;12.23;;;;;;;25.59;67.50;100235.69;5036516;28;20038;-74
2021/07/24 02:58:16;;;;;;;14.43;12.77;;;;;;;25.58;66.77;100233.16;5037238;28;20389;-75
2021/07/24 03:01:21;;;;;;;16.10;12.65;;;;;;;25.43;67.09;100227.25;5036709;28;20049;-76
2021/07/24 03:04:26;;;;;;;14.10;12.55;;;;;;;25.39;67.57;100226.03;5035999;28;20053;-76
2021/07/24 03:07:30;;;;;;;12.88;10.82;;;;;;;25.45;67.24;100227.91;5037141;28;20037;-76
2021/07/24 03:10:37;;;;;;;13.80;11.73;;;;;;;25.49;67.45;100231.84;5036244;28;20053;-74
2021/07/24 03:13:42;;;;;;;15.52;11.68;;;;;;;25.50;67.30;100230.78;5037280;28;20456;-74
2021/07/24 03:16:46;;;;;;;15.75;12.43;;;;;;;25.52;67.10;100217.63;5036212;28;20055;-74
2021/07/24 03:19:51;;;;;;;18.25;14.68;;;;;;;25.28;67.59;100213.09;5037096;28;20041;-74
2021/07/24 03:22:59;;;;;;;17.63;13.90;;;;;;;25.12;68.27;100228.31;5036533;28;20037;-74
2021/07/24 03:26:08;;;;;;;17.58;14.20;;;;;;;25.01;68.23;100227.19;5036731;28;20045;-74
2021/07/24 03:29:12;;;;;;;17.77;13.48;;;;;;;24.94;69.00;100229.19;5035610;28;20046;-74
2021/07/24 03:32:16;;;;;;;14.25;12.88;;;;;;;24.87;68.93;100220.19;5036866;28;20046;-74
2021/07/24 03:35:20;;;;;;;17.45;11.98;;;;;;;24.94;68.43;100225.59;5036562;28;20041;-75
2021/07/24 03:38:27;;;;;;;12.85;11.55;;;;;;;24.99;68.43;100212.84;5036362;28;20049;-74
2021/07/24 03:41:35;;;;;;;12.65;11.35;;;;;;;25.03;68.14;100222.34;5054534;28;20380;-74
2021/07/24 03:44:39;;;;;;;13.55;10.75;;;;;;;25.08;67.66;100225.19;5056277;28;20041;-75
2021/07/24 03:47:44;;;;;;;17.02;14.85;;;;;;;25.08;68.92;100235.38;5055767;28;20404;-75
2021/07/24 03:50:48;;;;;;;18.23;15.95;;;;;;;24.95;69.44;100230.03;5055344;28;20053;-74
2021/07/24 03:53:52;;;;;;;19.58;16.02;;;;;;;24.94;69.69;100233.84;5055338;28;20037;-75
2021/07/24 03:56:56;;;;;;;21.17;17.20;;;;;;;24.94;70.10;100237.44;5055982;28;20045;-75
2021/07/24 04:00:03;;;;;;;19.60;16.48;;;;;;;24.97;70.22;100239.72;5055429;28;20041;-75
2021/07/24 04:03:07;;;;;;;19.45;17.35;;;;;;;24.86;70.50;100242.41;5055587;28;20467;-74
2021/07/24 04:06:26;;;;;;;18.67;16.73;;;;;;;24.90;70.12;100229.88;5054499;28;20037;-74
2021/07/24 04:09:32;;;;;;;22.88;16.48;;;;;;;24.99;70.20;100231.25;5055282;28;20048;-75
2021/07/24 04:12:39;;;;;;;22.48;16.88;;;;;;;25.06;69.71;100235.56;5055478;28;20392;-75
2021/07/24 04:15:44;;;;;;;24.58;19.65;;;;;;;25.11;68.97;100232.97;5055409;28;20044;-77
2021/07/24 04:18:49;;;;;;;23.83;21.42;;;;;;;25.20;68.70;100244.50;5055227;28;20057;-75
2021/07/24 04:21:53;;;;;;;27.90;22.27;;;;;;;25.27;67.86;100244.38;5054758;28;20063;-75
2021/07/24 04:24:57;;;;;;;33.85;24.15;;;;;;;25.26;68.58;100242.72;5055180;28;20451;-75
2021/07/24 04:28:02;;;;;;;27.90;23.65;;;;;;;25.29;68.03;100247.75;5054895;28;20045;-75
2021/07/24 04:31:12;;;;;;;27.45;23.83;;;;;;;25.37;67.60;100261.16;5055380;28;20049;-77
2021/07/24 04:34:18;;;;;;;29.10;24.80;;;;;;;25.39;68.18;100264.50;5054343;28;20045;-75
2021/07/24 04:37:22;;;;;;;29.25;23.50;;;;;;;25.54;67.17;100267.72;5054156;28;20045;-75
2021/07/24 04:40:26;;;;;;;26.15;23.42;;;;;;;25.61;67.50;100262.94;5054527;28;20492;-75
2021/07/24 04:43:31;;;;;;;30.20;24.73;;;;;;;25.50;67.69;100250.03;5046948;28;20037;-76
2021/07/24 04:46:36;;;;;;;36.30;25.38;;;;;;;25.61;67.53;100251.94;5045465;28;20036;-75
2021/07/24 04:49:48;;;;;;;31.90;24.88;;;;;;;25.72;67.26;100251.16;5015188;28;20053;-75
2021/07/24 04:52:53;;;;;;;37.80;33.78;;;;;;;25.81;66.76;100247.84;5015225;28;20469;-75
2021/07/24 04:55:57;;;;;;;39.85;35.95;;;;;;;25.85;67.16;100242.69;5014972;28;20053;-76
2021/07/24 04:59:04;;;;;;;29.30;25.75;;;;;;;25.82;66.97;100243.97;5014765;28;20046;-77
2021/07/24 05:02:08;;;;;;;28.80;24.38;;;;;;;25.84;66.82;100254.78;5014927;28;20046;-75
2021/07/24 05:05:13;;;;;;;25.73;23.00;;;;;;;25.88;67.13;100250.47;5014286;28;20050;-76
2021/07/24 05:08:17;;;;;;;25.52;22.95;;;;;;;25.95;66.88;100245.69;5014142;28;20466;-76
2021/07/24 05:11:22;;;;;;;26.08;23.27;;;;;;;25.95;66.90;100237.44;5014217;28;20048;-75
2021/07/24 05:14:26;;;;;;;25.92;22.42;;;;;;;26.05;66.24;100237.69;5014526;28;20477;-75
2021/07/24 05:17:31;;;;;;;27.05;22.73;;;;;;;26.23;66.13;100237.63;5013919;28;20038;-75
2021/07/24 05:20:38;;;;;;;28.52;24.35;;;;;;;26.24;66.07;100224.69;5013516;28;20050;-75
2021/07/24 05:23:42;;;;;;;31.00;23.98;;;;;;;26.27;65.81;100218.72;5014705;28;20050;-75
2021/07/24 05:26:47;;;;;;;25.65;22.80;;;;;;;26.48;65.44;100220.84;5013368;28;20038;-75
2021/07/24 05:29:51;;;;;;;29.88;23.65;;;;;;;26.91;64.31;100221.25;5013688;28;20425;-75
2021/07/24 05:32:55;;;;;;;25.48;21.83;;;;;;;27.18;62.68;100226.22;5014236;28;20046;-73
2021/07/24 05:36:00;;;;;;;23.20;20.98;;;;;;;27.81;60.69;100223.25;5014298;28;20041;-75
2021/07/24 05:39:04;;;;;;;21.88;19.58;;;;;;;28.84;58.47;100231.78;5014264;28;20054;-76
2021/07/24 05:42:08;;;;;;;22.17;19.55;;;;;;;29.80;55.08;100235.69;5014216;28;20045;-74
2021/07/24 05:45:13;;;;;;;24.95;19.55;;;;;;;30.65;52.63;100236.31;5014218;28;20045;-75
2021/07/24 05:48:17;;;;;;;22.85;19.63;;;;;;;31.41;50.49;100220.81;5034239;28;20045;-76
2021/07/24 05:51:21;;;;;;;23.02;18.92;;;;;;;32.34;48.22;100217.84;5053049;28;20049;-75
2021/07/24 05:54:27;;;;;;;23.00;18.13;;;;;;;32.81;47.21;100217.47;5052574;28;20041;-74
2021/07/24 05:57:31;;;;;;;17.58;15.77;;;;;;;32.87;46.00;100228.28;5053866;28;20411;-75
2021/07/24 06:00:35;;;;;;;18.95;15.73;;;;;;;31.92;48.18;100210.66;5053584;28;20052;-76
2021/07/24 06:03:40;;;;;;;17.08;15.38;;;;;;;31.82;48.56;100213.44;5053476;28;20040;-74
2021/07/24 06:06:44;;;;;;;16.67;14.98;;;;;;;31.40;49.13;100207.25;5051877;28;20053;-75
2021/07/24 06:09:49;;;;;;;17.67;15.05;;;;;;;31.69;48.56;100210.34;5052352;28;20499;-76
2021/07/24 06:12:53;;;;;;;19.15;15.90;;;;;;;31.64;49.09;100210.34;5052692;28;20040;-77
2021/07/24 06:15:58;;;;;;;18.17;16.05;;;;;;;31.24;50.23;100214.69;5052846;28;20048;-75
2021/07/24 06:19:02;;;;;;;19.58;17.48;;;;;;;31.03;51.19;100215.75;5053381;28;20464;-77
2021/07/24 06:22:08;;;;;;;20.50;18.02;;;;;;;31.03;51.22;100217.69;5053650;28;20480;-77
2021/07/24 06:25:12;;;;;;;19.45;17.13;;;;;;;31.64;50.26;100213.13;5053382;28;20040;-76
2021/07/24 06:28:17;;;;;;;20.67;16.90;;;;;;;32.17;49.34;100229.28;5053305;28;20068;-75
2021/07/24 06:31:21;;;;;;;22.35;16.40;;;;;;;33.41;45.89;100240.28;5051172;28;20045;-77
2021/07/24 06:34:26;;;;;;;22.50;15.77;;;;;;;35.09;42.36;100232.94;5052430;28;20045;-75
2021/07/24 06:37:30;;;;;;;19.27;15.48;;;;;;;35.61;40.04;100236.72;5053285;28;20036;-74
2021/07/24 06:40:36;;;;;;;18.08;14.73;;;;;;;37.15;37.68;100227.78;5053113;28;20040;-74
2021/07/24 06:43:40;;;;;;;16.48;14.38;;;;;;;38.86;34.75;100234.72;5050634;28;20053;-75
2021/07/24 06:46:44;;;;;;;16.85;13.30;;;;;;;39.55;34.17;100229.28;5053095;28;20045;-75
2021/07/24 06:49:48;;;;;;;16.70;13.52;;;;;;;40.83;31.82;100231.09;5052977;28;20041;-75
2021/07/24 06:52:57;;;;;;;18.00;12.38;;;;;;;41.82;30.78;100227.50;5052207;28;20037;-75
2021/07/24 06:56:02;;;;;;;14.52;12.57;;;;;;;41.73;30.75;100218.28;5053258;28;20045;-77
2021/07/24 06:59:07;;;;;;;13.15;11.68;;;;;;;42.74;29.11;100222.41;5053029;28;20053;-75
2021/07/24 07:02:11;;;;;;;16.13;11.75;;;;;;;42.48;29.52;100228.31;5044289;28;20045;-75
2021/07/24 07:05:15;;;;;;;13.73;12.15;;;;;;;43.12;28.85;100227.69;5036212;28;20514;-75
2021/07/24 07:08:21;;;;;;;19.40;11.70;;;;;;;43.60;28.08;100221.16;5036924;28;20045;-76
2021/07/24 07:11:25;;;;;;;14.10;11.23;;;;;;;44.93;26.47;100221.31;5036704;28;20049;-75
2021/07/24 07:14:29;;;;;;;16.05;12.88;;;;;;;44.27;26.89;100220.34;5036506;28;20041;-75
2021/07/24 07:17:34;;;;;;;14.38;12.25;;;;;;;45.14;25.65;100221.00;5036295;28;20045;-75
2021/07/24 07:20:42;;;;;;;16.10;12.18;;;;;;;45.94;25.61;100221.22;5053657;28;20045;-75
2021/07/24 07:23:46;;;;;;;14.82;10.88;;;;;;;46.02;24.71;100228.72;5056293;28;20049;-75
2021/07/24 07:26:50;;;;;;;13.85;11.25;;;;;;;47.32;23.54;100218.06;5056618;28;20052;-75
2021/07/24 07:29:54;;;;;;;12.02;10.65;;;;;;;47.79;23.69;100221.16;5055285;28;20045;-75
2021/07/24 07:32:59;;;;;;;16.90;10.73;;;;;;;47.75;23.68;100228.03;5056140;28;20053;-76
2021/07/24 07:36:03;;;;;;;14.13;11.68;;;;;;;46.83;24.32;100227.44;5056244;28;20053;-76
2021/07/24 07:39:08;;;;;;;12.77;11.50;;;;;;;46.94;23.81;100225.56;5054143;28;20053;-76
2021/07/24 07:42:12;;;;;;;13.50;11.18;;;;;;;47.04;23.80;100218.41;5054982;28;20045;-75
2021/07/24 07:45:19;;;;;;;16.73;11.80;;;;;;;47.81;23.30;100229.34;5056341;28;20361;-77
2021/07/24 07:48:23;;;;;;;15.93;12.35;;;;;;;48.25;22.61;100228.25;5043651;28;20057;-75
2021/07/24 07:51:28;;;;;;;14.50;10.20;;;;;;;49.55;21.56;100222.09;5054984;28;20045;-76
2021/07/24 07:54:33;;;;;;;15.70;11.45;;;;;;;49.68;21.65;100228.25;5056036;28;20468;-76
2021/07/24 07:57:40;;;;;;;14.68;10.15;;;;;;;50.33;21.52;100228.91;5055982;28;20045;-76
2021/07/24 08:00:47;;;;;;;11.53;10.47;;;;;;;50.53;20.86;100220.78;5055944;28;20448;-79
2021/07/24 08:03:51;;;;;;;16.40;11.18;;;;;;;49.06;21.97;100224.56;5054806;28;20456;-77
2021/07/24 08:06:55;;;;;;;19.33;11.77;;;;;;;48.96;22.25;100234.69;5054927;28;20049;-76
2021/07/24 08:10:00;;;;;;;14.50;10.73;;;;;;;49.74;21.25;100230.31;5036778;28;20033;-76
2021/07/24 08:13:15;;;;;;;15.40;13.20;;;;;;;47.81;23.23;100233.00;5049589;28;20045;-77
2021/07/24 08:16:19;;;;;;;14.80;11.70;;;;;;;47.49;23.43;100243.94;5050728;28;20041;-76
2021/07/24 08:19:24;;;;;;;12.50;10.35;;;;;;;49.04;22.23;100236.34;5053467;28;20060;-77
2021/07/24 08:22:28;;;;;;;15.80;14.13;;;;;;;48.07;23.52;100249.19;5051124;28;20438;-77
2021/07/24 08:25:33;;;;;;;23.20;13.38;;;;;;;47.80;23.53;100241.94;5053146;28;20041;-76
2021/07/24 08:28:38;;;;;;;19.77;14.57;;;;;;;46.59;24.65;100235.50;5055013;28;20057;-75
2021/07/24 08:31:42;;;;;;;21.88;14.50;;;;;;;43.34;28.18;100232.88;5053850;28;20049;-76
2021/07/24 08:34:51;;;;;;;26.58;17.00;;;;;;;40.77;31.44;100224.81;5054361;28;20045;-75
2021/07/24 08:37:55;;;;;;;15.23;13.10;;;;;;;40.32;32.92;100223.63;5055193;28;20380;-75
2021/07/24 08:41:00;;;;;;;18.52;12.70;;;;;;;40.19;32.79;100228.31;5053961;28;20049;-76
2021/07/24 08:44:04;;;;;;;18.80;15.18;;;;;;;39.51;33.45;100217.03;5054758;28;20053;-76
2021/07/24 08:47:09;;;;;;;17.95;15.13;;;;;;;38.84;34.28;100206.13;5054440;28;20423;-76
2021/07/24 08:50:13;;;;;;;19.23;16.92;;;;;;;38.10;36.17;100201.44;5052379;28;20049;-74
2021/07/24 08:53:28;;;;;;;22.80;17.80;;;;;;;37.12;37.43;100209.63;5054183;28;20049;-74
2021/07/24 08:56:45;;;;;;;19.52;16.77;;;;;;;36.30;38.73;100200.34;5034728;28;20045;-75
2021/07/24 08:59:50;;;;;;;22.58;16.88;;;;;;;36.48;38.61;100205.06;5038827;28;20435;-75
2021/07/24 09:02:59;;;;;;;20.10;16.55;;;;;;;36.66;38.84;100216.47;5052636;28;20041;-75
2021/07/24 09:06:03;;;;;;;22.40;15.73;;;;;;;36.87;37.77;100212.94;5038353;28;20392;-75
2021/07/24 09:09:07;;;;;;;26.10;19.92;;;;;;;35.93;40.10;100200.44;5045310;28;20041;-76
2021/07/24 09:12:13;;;;;;;25.15;20.30;;;;;;;35.89;39.71;100191.00;5031914;28;20041;-76
2021/07/24 09:15:18;;;;;;;24.98;18.15;;;;;;;35.40;41.17;100163.56;5051637;28;20040;-75
2021/07/24 09:18:23;;;;;;;24.17;18.98;;;;;;;34.74;41.82;100169.19;5054222;28;20411;-74
2021/07/24 09:21:29;;;;;;;23.48;19.27;;;;;;;34.76;41.67;100171.72;5053832;28;20041;-77
2021/07/24 09:24:33;;;;;;;23.98;19.10;;;;;;;34.26;43.06;100176.72;5053736;28;20044;-76
2021/07/24 09:27:40;;;;;;;23.65;18.30;;;;;;;33.85;44.13;100167.06;5052222;28;20049;-76
2021/07/24 09:30:46;;;;;;;25.77;19.92;;;;;;;33.60;44.35;100184.81;5052561;28;20044;-75
2021/07/24 09:33:53;;;;;;;19.98;17.13;;;;;;;33.30;45.21;100180.25;5053753;28;20049;-76
2021/07/24 09:36:57;;;;;;;25.20;17.52;;;;;;;33.23;45.51;100179.72;5050720;28;20048;-76
2021/07/24 09:40:24;;;;;;;23.25;15.07;;;;;;;33.45;45.51;100187.66;5052380;28;20056;-75
2021/07/24 09:43:39;;;;;;;15.77;14.18;;;;;;;34.05;44.22;100194.75;5053202;28;20396;-76
2021/07/24 09:46:55;;;;;;;18.55;16.58;;;;;;;33.63;44.64;100183.41;5052405;28;20041;-75
2021/07/24 09:50:13;;;;;;;19.92;15.55;;;;;;;33.86;44.00;100174.28;5051223;28;20415;-77
2021/07/24 09:53:37;;;;;;;20.83;16.20;;;;;;;33.63;44.60;100172.25;5051262;28;20045;-76
2021/07/24 09:56:43;;;;;;;20.27;15.48;;;;;;;33.44;45.42;100160.94;5052986;28;20430;-76
2021/07/24 09:59:48;;;;;;;19.08;15.70;;;;;;;33.12;45.21;100149.47;5052468;28;20472;-77
2021/07/24 10:03:03;;;;;;;17.75;14.30;;;;;;;33.55;45.57;100161.75;5053474;28;20049;-76
2021/07/24 10:06:11;;;;;;;18.52;15.25;;;;;;;33.92;45.05;100162.78;5052674;28;20037;-76
2021/07/24 10:09:16;;;;;;;16.85;15.15;;;;;;;33.89;45.20;100146.69;5053471;28;20037;-75
2021/07/24 10:12:20;;;;;;;21.48;16.20;;;;;;;33.88;45.07;100122.72;5052510;28;20041;-77
2021/07/24 10:15:28;;;;;;;17.50;14.85;;;;;;;33.48;46.10;100111.91;5053552;28;20147;-75
2021/07/24 10:18:33;;;;;;;20.38;15.43;;;;;;;33.34;46.23;100100.63;5053473;28;20056;-77
2021/07/24 10:21:38;;;;;;;16.10;13.98;;;;;;;33.08;47.66;100101.94;5053531;28;20448;-77
2021/07/24 10:24:42;;;;;;;18.42;13.57;;;;;;;33.23;46.49;100106.56;5053541;28;20045;-76
2021/07/24 10:27:49;;;;;;;15.38;12.27;;;;;;;33.76;45.18;100111.16;5053406;28;20053;-77
2021/07/24 10:30:56;;;;;;;17.73;12.38;;;;;;;34.14;43.93;100114.97;5052992;28;20049;-77
2021/07/24 10:34:02;;;;;;;14.57;11.35;;;;;;;34.61;43.50;100089.91;5053123;28;20049;-77
2021/07/24 10:37:32;;;;;;;18.65;13.38;;;;;;;33.64;45.59;100099.56;5053311;28;20049;-76
2021/07/24 10:40:36;;;;;;;20.98;12.23;;;;;;;33.49;46.02;100115.53;5057055;28;20053;-76
2021/07/24 10:44:00;;;;;;;13.98;11.88;;;;;;;33.20;46.97;100129.41;5056775;28;20037;-75
2021/07/24 10:47:04;;;;;;;13.52;11.85;;;;;;;33.09;46.54;100125.84;5057054;28;20063;-75
2021/07/24 10:50:09;;;;;;;13.57;11.57;;;;;;;33.52;45.89;100134.44;5057414;28;20044;-76
2021/07/24 10:53:14;;;;;;;33.85;30.35;;;;;;;33.75;45.02;100128.97;5057138;28;20049;-77
2021/07/24 10:56:39;;;;;;;27.73;19.85;;;;;;;33.76;44.42;100110.31;5056772;28;20049;-76
2021/07/24 10:59:43;;;;;;;15.43;11.15;;;;;;;33.50;45.68;100134.75;5057211;28;20049;-77
2021/07/24 11:02:49;;;;;;;15.15;10.10;;;;;;;33.49;45.38;100147.00;5056683;28;20044;-76
2021/07/24 11:05:53;;;;;;;14.95;10.25;;;;;;;33.42;44.92;100155.69;5057150;28;20415;-77
2021/07/24 11:08:57;;;;;;;20.20;10.65;;;;;;;33.62;45.04;100157.50;5056202;28;20049;-75
2021/07/24 11:12:06;;;;;;;13.93;10.48;;;;;;;33.69;44.61;100157.16;5056472;28;20481;-77
2021/07/24 11:15:17;;;;;;;17.65;9.98;;;;;;;33.68;44.13;100155.47;5044803;28;20049;-76
2021/07/24 11:18:23;;;;;;;13.35;10.25;;;;;;;33.68;43.99;100147.97;5056382;28;20052;-77
2021/07/24 11:22:06;;;;;;;12.15;9.40;;;;;;;33.93;42.68;100156.09;5053098;28;20041;-76
2021/07/24 11:25:10;;;;;;;12.50;9.18;;;;;;;34.17;42.27;100142.22;5041509;28;20044;-74
2021/07/24 11:28:22;;;;;;;17.08;9.55;;;;;;;34.21;42.34;100140.53;5055676;28;20049;-75
2021/07/24 11:31:27;;;;;;;12.77;9.73;;;;;;;34.05;42.93;100135.41;5056290;28;20064;-76
2021/07/24 11:34:32;;;;;;;11.90;8.93;;;;;;;34.07;43.05;100128.44;5047582;28;20064;-75
2021/07/24 11:37:47;;;;;;;14.25;8.85;;;;;;;34.39;42.77;100122.22;5048908;28;20056;-76
2021/07/24 11:41:03;;;;;;;15.80;9.90;;;;;;;34.77;42.28;100115.59;5044833;28;20072;-76
2021/07/24 11:44:08;;;;;;;13.07;9.73;;;;;;;34.83;43.26;100116.38;5036606;28;20112;-77
2021/07/24 11:47:15;;;;;;;14.18;11.15;;;;;;;34.78;42.35;100108.06;5036483;28;20498;-76
2021/07/24 11:50:21;;;;;;;11.48;9.05;;;;;;;34.78;42.64;100108.91;5035415;28;20392;-77
2021/07/24 11:53:25;;;;;;;15.13;10.00;;;;;;;34.82;42.79;100109.97;5036609;28;20060;-76
2021/07/24 11:56:29;;;;;;;13.95;9.77;;;;;;;34.94;42.21;100107.56;5051567;28;20049;-76
2021/07/24 11:59:39;;;;;;;17.45;10.05;;;;;;;34.58;42.42;100098.03;5055188;28;20052;-76
2021/07/24 12:02:45;;;;;;;14.20;9.00;;;;;;;34.70;42.68;100101.19;5055033;28;20037;-75
2021/07/24 12:06:08;;;;;;;16.60;10.30;;;;;;;34.11;43.72;100096.06;5052497;28;20052;-75
2021/07/24 12:09:13;;;;;;;13.80;10.45;;;;;;;33.92;44.13;100095.94;5053541;28;20049;-74
2021/07/24 12:12:23;;;;;;;20.27;9.23;;;;;;;34.18;43.30;100078.97;5052761;28;20045;-75
2021/07/24 12:16:05;;;;;;;16.60;8.00;;;;;;;34.17;41.88;100077.31;5053479;28;20404;-76
2021/07/24 12:19:20;;;;;;;11.07;8.73;;;;;;;34.42;41.71;100083.41;5054372;28;20052;-74
2021/07/24 12:22:27;;;;;;;13.70;8.25;;;;;;;34.66;41.04;100066.69;5055771;28;20068;-77
2021/07/24 12:25:31;;;;;;;16.95;8.98;;;;;;;34.76;41.13;100035.88;5055697;28;20048;-75
2021/07/24 12:28:37;;;;;;;13.88;8.35;;;;;;;34.83;40.42;100064.22;5055919;28;20067;-77
2021/07/24 12:31:42;;;;;;;13.27;8.45;;;;;;;34.85;40.08;100050.78;5055266;28;20051;-77
2021/07/24 12:34:50;;;;;;;10.95;7.40;;;;;;;34.80;39.61;100041.66;5055259;28;20052;-76
2021/07/24 12:38:02;;;;;;;8.07;7.28;;;;;;;34.92;40.30;100034.50;5055393;28;20483;-74
2021/07/24 12:41:06;;;;;;;13.73;8.27;;;;;;;34.98;39.34;100035.25;5054558;28;20056;-76
2021/07/24 12:44:11;;;;;;;12.20;7.65;;;;;;;34.91;38.86;100032.81;5055279;28;20072;-77
2021/07/24 12:47:17;;;;;;;11.95;8.43;;;;;;;34.86;38.28;100029.31;5054199;28;20056;-75
2021/07/24 12:50:21;;;;;;;10.95;7.68;;;;;;;34.94;38.45;100025.81;5053504;28;20055;-75
2021/07/24 12:53:31;;;;;;;11.23;7.80;;;;;;;35.19;38.56;100011.47;5051964;28;20049;-75
2021/07/24 12:56:38;;;;;;;9.85;6.78;;;;;;;35.52;37.41;100001.16;5044139;28;20103;-75
2021/07/24 12:59:42;;;;;;;9.43;7.45;;;;;;;35.55;36.17;100012.56;5054589;28;20130;-75
2021/07/24 13:02:48;;;;;;;11.20;7.60;;;;;;;35.54;36.55;100015.63;5054301;28;20051;-76
2021/07/24 13:05:56;;;;;;;11.60;7.10;;;;;;;35.61;36.31;99993.72;5054785;28;20111;-76
2021/07/24 13:09:05;;;;;;;14.02;7.10;;;;;;;35.73;36.57;99989.28;5054358;28;20044;-76
2021/07/24 13:12:10;;;;;;;8.77;6.78;;;;;;;35.69;36.80;99984.63;5054137;28;20511;-75
2021/07/24 13:15:15;;;;;;;19.00;9.00;;;;;;;35.24;39.45;99989.88;5054592;28;20499;-75
2021/07/24 13:18:19;;;;;;;13.73;8.25;;;;;;;35.20;39.76;99996.41;5053719;28;20056;-76
2021/07/24 13:21:25;;;;;;;13.93;8.48;;;;;;;35.09;40.16;99992.09;5048192;28;20056;-75
2021/07/24 13:24:33;;;;;;;11.85;8.50;;;;;;;34.79;40.33;99992.59;5047367;28;20056;-75
2021/07/24 13:31:01;;;;;;;13.10;8.55;;;;;;;35.01;40.69;100001.16;5054158;28;20052;-76
2021/07/24 13:34:05;;;;;;;12.15;8.38;;;;;;;34.94;40.40;100007.09;5053242;28;20048;-76
2021/07/24 13:37:14;;;;;;;10.93;7.85;;;;;;;35.13;40.76;100010.75;5053421;28;20052;-76
2021/07/24 13:40:19;;;;;;;15.48;8.80;;;;;;;34.81;40.93;100002.31;5053625;28;20059;-75
2021/07/24 13:43:23;;;;;;;12.52;10.05;;;;;;;34.87;39.91;99984.34;5053107;28;20510;-76
2021/07/24 13:46:29;;;;;;;14.40;9.27;;;;;;;34.94;39.78;99978.38;5053645;28;20060;-75
2021/07/24 13:49:38;;;;;;;10.77;8.88;;;;;;;34.80;40.03;99971.91;5053215;28;20052;-76
2021/07/24 13:52:42;;;;;;;10.55;8.55;;;;;;;34.61;40.15;99963.56;5053977;28;20051;-76
2021/07/24 13:55:49;;;;;;;12.15;8.32;;;;;;;34.42;39.89;99941.22;5052209;28;20108;-76
2021/07/24 13:58:53;;;;;;;12.43;9.02;;;;;;;34.21;40.79;99925.09;5053600;28;20055;-76
2021/07/24 14:01:57;;;;;;;10.52;8.98;;;;;;;34.48;41.26;99934.47;5033400;28;20508;-76
2021/07/24 14:05:03;;;;;;;10.98;8.88;;;;;;;34.46;40.29;99960.97;5032022;28;20049;-77
2021/07/24 14:08:07;;;;;;;29.58;26.38;;;;;;;34.84;39.92;99965.41;5030791;28;20057;-76
2021/07/24 14:11:20;;;;;;;13.48;11.05;;;;;;;34.79;40.14;99953.53;5031610;28;20397;-75
2021/07/24 14:14:24;;;;;;;9.90;8.35;;;;;;;34.83;40.09;99955.41;5030519;28;20056;-75
2021/07/24 14:17:29;;;;;;;14.02;8.48;;;;;;;34.90;39.78;99955.84;5031220;28;20064;-76
2021/07/24 14:20:33;;;;;;;21.35;9.30;;;;;;;34.56;39.03;99950.53;5032647;28;20061;-76